Time,TemperatureF,DewpointF,PressureIn,WindDirection,WindDirectionDegrees,WindSpeedMPH,WindSpeedGustMPH,Humidity,HourlyPrecipIn,Conditions,Clouds,dailyrainin,SolarRadiationWatts/m^2,SoftwareType,DateUTC
2013-02-10 00:01:00,35.0,34.0,-100.00,NNW,341,0.0,2.0,98,0.00,,,0.03,0.000000,,2013-02-10 08:01:00,
2013-02-10 00:32:00,35.0,34.0,-100.00,NE,45,2.0,4.0,98,0.00,,,0.03,0.000000,,2013-02-10 08:32:00,
2013-02-10 00:43:00,35.0,34.0,-100.00,NE,45,2.0,4.0,98,0.00,,,0.03,0.000000,,2013-02-10 08:43:00,
2013-02-10 00:52:00,35.0,34.0,-100.00,NE,45,2.0,4.0,98,0.00,,,0.03,0.000000,,2013-02-10 08:52:00,
2013-02-10 01:01:00,35.0,34.0,-100.00,NE,45,2.0,4.0,98,0.00,,,0.03,0.000000,,2013-02-10 09:01:00,
2013-02-10 01:32:00,36.0,35.0,-100.00,NNW,339,0.0,4.0,98,0.00,,,0.03,0.000000,,2013-02-10 09:32:00,
2013-02-10 01:42:00,36.0,35.0,-100.00,NNW,339,0.0,4.0,98,0.00,,,0.03,0.000000,,2013-02-10 09:42:00,
2013-02-10 01:52:00,36.0,35.0,-100.00,NNW,339,0.0,4.0,98,0.00,,,0.03,0.000000,,2013-02-10 09:52:00,
2013-02-10 02:01:00,36.0,35.0,-100.00,NNW,339,0.0,4.0,98,0.00,,,0.03,0.000000,,2013-02-10 10:01:00,
2013-02-10 02:32:00,34.0,34.0,-100.00,ENE,66,3.0,4.0,98,0.00,,,0.03,0.000000,,2013-02-10 10:32:00,
2013-02-10 02:42:00,34.0,34.0,-100.00,ENE,66,3.0,4.0,98,0.00,,,0.03,0.000000,,2013-02-10 10:42:00,
2013-02-10 02:52:00,34.0,34.0,-100.00,ENE,66,3.0,4.0,98,0.00,,,0.03,0.000000,,2013-02-10 10:52:00,
2013-02-10 03:01:00,34.0,34.0,-100.00,ENE,66,3.0,4.0,98,0.00,,,0.03,0.000000,,2013-02-10 11:01:00,
2013-02-10 03:32:00,35.0,34.0,-100.00,North,7,0.0,4.0,98,0.00,,,0.03,0.000000,,2013-02-10 11:32:00,
2013-02-10 03:42:00,35.0,34.0,-100.00,North,7,0.0,4.0,98,0.00,,,0.03,0.000000,,2013-02-10 11:42:00,
2013-02-10 03:52:00,35.0,34.0,-100.00,North,7,0.0,4.0,98,0.00,,,0.03,0.000000,,2013-02-10 11:52:00,
2013-02-10 04:01:00,35.0,34.0,-100.00,North,7,0.0,4.0,98,0.00,,,0.03,0.000000,,2013-02-10 12:01:00,
2013-02-10 07:32:00,34.0,34.0,-100.00,West,261,4.0,7.0,98,-99.99,,,0.04,0.000000,,2013-02-10 15:32:00,
2013-02-10 07:42:00,34.0,34.0,-100.00,West,261,4.0,7.0,98,-99.99,,,0.04,0.000000,,2013-02-10 15:42:00,
2013-02-10 07:52:00,34.0,34.0,-100.00,West,261,4.0,7.0,98,-99.99,,,0.04,0.000000,,2013-02-10 15:52:00,
2013-02-10 08:01:00,34.0,34.0,-100.00,West,261,4.0,7.0,98,-99.99,,,0.04,0.000000,,2013-02-10 16:01:00,
2013-02-10 08:32:00,35.0,34.0,-100.00,West,265,1.0,6.0,98,0.00,,,0.04,3.000000,,2013-02-10 16:32:00,
2013-02-10 08:42:00,35.0,34.0,-100.00,West,265,1.0,6.0,98,0.00,,,0.04,3.000000,,2013-02-10 16:42:00,
2013-02-10 08:52:00,35.0,34.0,-100.00,West,265,1.0,6.0,98,0.00,,,0.04,3.000000,,2013-02-10 16:52:00,
2013-02-10 09:01:00,35.0,34.0,-100.00,West,265,1.0,6.0,98,0.00,,,0.04,3.000000,,2013-02-10 17:01:00,
2013-02-10 09:32:00,35.0,34.0,-100.00,South,187,0.0,4.0,98,0.00,,,0.04,15.000000,,2013-02-10 17:32:00,
2013-02-10 09:42:00,35.0,34.0,-100.00,South,187,0.0,4.0,98,0.00,,,0.04,15.000000,,2013-02-10 17:42:00,
2013-02-10 09:52:00,35.0,34.0,-100.00,South,187,0.0,4.0,98,0.00,,,0.04,15.000000,,2013-02-10 17:52:00,
2013-02-10 10:01:00,35.0,34.0,-100.00,South,187,0.0,4.0,98,0.00,,,0.04,15.000000,,2013-02-10 18:01:00,
2013-02-10 11:32:00,36.0,35.0,-100.00,WSW,253,2.0,5.0,98,-99.99,,,0.04,61.000000,,2013-02-10 19:32:00,
2013-02-10 11:43:00,36.0,35.0,-100.00,WSW,253,2.0,5.0,98,-99.99,,,0.04,61.000000,,2013-02-10 19:43:00,
2013-02-10 11:52:00,36.0,35.0,-100.00,WSW,253,2.0,5.0,98,-99.99,,,0.04,61.000000,,2013-02-10 19:52:00,
2013-02-10 12:01:00,36.0,35.0,-100.00,WSW,253,2.0,5.0,98,-99.99,,,0.04,61.000000,,2013-02-10 20:01:00,
2013-02-10 12:32:00,36.0,35.0,-100.00,WSW,240,3.0,7.0,97,0.00,,,0.04,82.000000,,2013-02-10 20:32:00,
2013-02-10 12:42:00,36.0,35.0,-100.00,WSW,240,3.0,7.0,97,0.00,,,0.04,82.000000,,2013-02-10 20:42:00,
2013-02-10 12:52:00,36.0,35.0,-100.00,WSW,240,3.0,7.0,97,0.00,,,0.04,82.000000,,2013-02-10 20:52:00,
2013-02-10 13:02:00,36.0,35.0,-100.00,WSW,240,3.0,7.0,97,0.00,,,0.04,82.000000,,2013-02-10 21:02:00,
2013-02-10 13:32:00,36.0,35.0,-100.00,WSW,238,1.0,6.0,97,0.00,,,0.04,88.000000,,2013-02-10 21:32:00,
2013-02-10 13:42:00,36.0,35.0,-100.00,WSW,238,1.0,6.0,97,0.00,,,0.04,88.000000,,2013-02-10 21:42:00,
2013-02-10 13:52:00,36.0,35.0,-100.00,WSW,238,1.0,6.0,97,0.00,,,0.04,88.000000,,2013-02-10 21:52:00,
2013-02-10 14:01:00,36.0,35.0,-100.00,WSW,238,1.0,6.0,97,0.00,,,0.04,88.000000,,2013-02-10 22:01:00,
2013-02-10 15:32:00,37.0,36.0,-100.00,WSW,257,3.0,8.0,97,-99.99,,,0.04,63.000000,,2013-02-10 23:32:00,
2013-02-10 15:42:00,37.0,36.0,-100.00,WSW,257,3.0,8.0,97,-99.99,,,0.04,63.000000,,2013-02-10 23:42:00,
2013-02-10 15:52:00,37.0,36.0,-100.00,WSW,257,3.0,8.0,97,-99.99,,,0.04,63.000000,,2013-02-10 23:52:00,
2013-02-10 16:01:00,37.0,36.0,-100.00,WSW,257,3.0,8.0,97,-99.99,,,0.04,63.000000,,2013-02-11 00:01:00,
2013-02-10 16:32:00,36.0,35.0,-100.00,WSW,253,1.0,7.0,98,0.00,,,0.04,39.000000,,2013-02-11 00:32:00,
2013-02-10 16:42:00,36.0,35.0,-100.00,WSW,253,1.0,7.0,98,0.00,,,0.04,39.000000,,2013-02-11 00:42:00,
2013-02-10 16:52:00,36.0,35.0,-100.00,WSW,253,1.0,7.0,98,0.00,,,0.04,39.000000,,2013-02-11 00:52:00,
2013-02-10 17:01:00,36.0,35.0,-100.00,WSW,253,1.0,7.0,98,0.00,,,0.04,39.000000,,2013-02-11 01:01:00,
2013-02-10 18:32:00,35.0,34.0,-100.00,West,264,1.0,3.0,98,-99.99,,,0.04,2.000000,,2013-02-11 02:32:00,
2013-02-10 18:42:00,35.0,34.0,-100.00,West,264,1.0,3.0,98,-99.99,,,0.04,2.000000,,2013-02-11 02:42:00,
2013-02-10 18:52:00,35.0,34.0,-100.00,West,264,1.0,3.0,98,-99.99,,,0.04,2.000000,,2013-02-11 02:52:00,
2013-02-10 19:01:00,35.0,34.0,-100.00,West,264,1.0,3.0,98,-99.99,,,0.04,2.000000,,2013-02-11 03:01:00,
2013-02-10 19:32:00,35.0,34.0,-100.00,West,281,0.0,5.0,98,0.00,,,0.03,0.000000,,2013-02-11 03:32:00,
2013-02-10 19:42:00,35.0,34.0,-100.00,West,281,0.0,5.0,98,0.00,,,0.03,0.000000,,2013-02-11 03:42:00,
2013-02-10 19:52:00,35.0,34.0,-100.00,West,281,0.0,5.0,98,0.00,,,0.03,0.000000,,2013-02-11 03:52:00,
2013-02-10 20:01:00,35.0,34.0,-100.00,West,281,0.0,5.0,98,0.00,,,0.03,0.000000,,2013-02-11 04:01:00,
2013-02-10 20:32:00,35.0,34.0,-100.00,West,274,0.0,2.0,98,0.00,,,0.02,0.000000,,2013-02-11 04:32:00,
2013-02-10 20:42:00,35.0,34.0,-100.00,West,274,0.0,2.0,98,0.00,,,0.02,0.000000,,2013-02-11 04:42:00,
2013-02-10 20:52:00,35.0,34.0,-100.00,West,274,0.0,2.0,98,0.00,,,0.02,0.000000,,2013-02-11 04:52:00,
2013-02-10 21:01:00,35.0,34.0,-100.00,West,274,0.0,2.0,98,0.00,,,0.02,0.000000,,2013-02-11 05:01:00,
2013-02-10 21:32:00,34.0,34.0,-100.00,SSW,200,1.0,4.0,98,0.00,,,-99.99,0.000000,,2013-02-11 05:32:00,
2013-02-10 21:42:00,34.0,34.0,-100.00,SSW,200,1.0,4.0,98,0.00,,,-99.99,0.000000,,2013-02-11 05:42:00,
2013-02-10 21:52:00,34.0,34.0,-100.00,SSW,200,1.0,4.0,98,0.00,,,-99.99,0.000000,,2013-02-11 05:52:00,
2013-02-10 22:01:00,34.0,34.0,-100.00,SSW,200,1.0,4.0,98,0.00,,,-99.99,0.000000,,2013-02-11 06:01:00,
2013-02-10 22:32:00,34.0,34.0,-100.00,WSW,256,2.0,6.0,98,0.01,,,-99.99,0.000000,,2013-02-11 06:32:00,
2013-02-10 22:42:00,34.0,34.0,-100.00,WSW,256,2.0,6.0,98,0.01,,,-99.99,0.000000,,2013-02-11 06:42:00,
2013-02-10 22:52:00,34.0,34.0,-100.00,WSW,256,2.0,6.0,98,0.01,,,-99.99,0.000000,,2013-02-11 06:52:00,
2013-02-10 23:01:00,34.0,34.0,-100.00,WSW,256,2.0,6.0,98,0.01,,,-99.99,0.000000,,2013-02-11 07:01:00,
2013-02-10 23:32:00,34.0,34.0,-100.00,West,264,3.0,8.0,98,0.01,,,0.04,0.000000,,2013-02-11 07:32:00,
2013-02-10 23:42:00,34.0,34.0,-100.00,West,264,3.0,8.0,98,0.01,,,0.04,0.000000,,2013-02-11 07:42:00,
2013-02-10 23:52:00,34.0,34.0,-100.00,West,264,3.0,8.0,98,0.01,,,0.04,0.000000,,2013-02-11 07:52:00,